Time;durP1;ratioP1;P1;durP2;ratioP2;P2;SDS_P1;SDS_P2;PMS_P1;PMS_P2;Temp;Humidity;BMP_temperature;BMP_pressure;BME280_temperature;BME280_humidity;BME280_pressure;Samples;Min_cycle;Max_cycle;Signal;HPM_P1;HPM_P2
2023/10/06 00:01:44;;;;;;;14.07;6.53;;;410.00;2355.20;;;;;;5097310;28;20030;-78
2023/10/06 00:04:22;;;;;;;17.52;6.40;;;435.20;2355.20;;;;;;5097606;28;20078;-79
2023/10/06 00:06:48;;;;;;;11.52;5.82;;;409.90;2355.20;;;;;;5097146;28;20016;-79
2023/10/06 00:09:28;;;;;;;16.48;6.53;;;409.80;2355.20;;;;;;5097584;28;20033;-78
2023/10/06 00:11:54;;;;;;;11.55;6.10;;;409.80;2355.20;;;;;;5115334;28;20086;-78
2023/10/06 00:17:19;;;;;;;15.77;6.03;;;409.70;2355.20;;;;;;5023024;28;20043;-78
2023/10/06 00:19:47;;;;;;;19.95;6.68;;;409.80;2355.20;;;;;;5016247;28;20530;-78
2023/10/06 00:22:17;;;;;;;12.70;5.53;;;409.90;2355.20;;;;;;5032791;28;20041;-78
2023/10/06 00:24:50;;;;;;;15.02;6.30;;;409.90;2355.20;;;;;;5016396;28;20025;-78
2023/10/06 00:27:23;;;;;;;26.75;6.50;;;409.90;2355.20;;;;;;5032727;28;20069;-78
2023/10/06 00:29:54;;;;;;;14.30;6.20;;;410.00;2355.20;;;;;;5016323;28;20022;-78
2023/10/06 00:32:26;;;;;;;22.92;6.53;;;410.00;2355.20;;;;;;5032586;28;20025;-78
2023/10/06 00:35:11;;;;;;;20.50;6.45;;;410.00;2355.20;;;;;;5032532;28;20033;-77
2023/10/06 00:37:39;;;;;;;20.27;6.53;;;410.20;2355.20;;;;;;5032396;28;20033;-77
2023/10/06 00:40:11;;;;;;;17.73;7.70;;;410.20;2355.20;;;;;;5032602;28;20029;-79
2023/10/06 00:42:38;;;;;;;13.50;6.03;;;410.20;2355.20;;;;;;5015730;28;20041;-79
2023/10/06 00:45:07;;;;;;;18.52;6.00;;;410.20;2355.20;;;;;;5015947;28;20026;-78
2023/10/06 00:47:38;;;;;;;22.08;6.63;;;410.20;2355.20;;;;;;5032034;28;20070;-78
2023/10/06 00:50:12;;;;;;;18.77;7.03;;;410.30;2355.20;;;;;;5032506;28;20037;-78
2023/10/06 00:52:39;;;;;;;20.52;7.50;;;410.30;2355.20;;;;;;5022971;28;20025;-77
2023/10/06 00:55:14;;;;;;;20.73;6.43;;;410.30;2355.20;;;;;;5114848;28;20024;-79
2023/10/06 00:57:50;;;;;;;22.10;5.72;;;410.30;2355.20;;;;;;5114919;28;20027;-79
2023/10/06 01:00:24;;;;;;;20.85;7.55;;;410.20;2355.20;;;;;;5096028;28;20052;-78
2023/10/06 01:02:51;;;;;;;20.95;7.00;;;410.30;2355.20;;;;;;5076384;28;20146;-79
2023/10/06 01:05:17;;;;;;;10.48;5.40;;;410.20;2355.20;;;;;;5112956;28;20019;-79
2023/10/06 01:07:46;;;;;;;20.20;6.72;;;410.20;2355.20;;;;;;5114826;28;20031;-77
2023/10/06 01:10:17;;;;;;;19.70;6.65;;;410.10;2355.20;;;;;;5114472;28;20020;-79
2023/10/06 01:12:50;;;;;;;20.95;6.07;;;410.00;2355.20;;;;;;5112917;28;20096;-77
2023/10/06 01:15:17;;;;;;;28.52;6.93;;;410.00;2355.20;;;;;;5105782;28;20084;-79
2023/10/06 01:17:44;;;;;;;16.90;6.05;;;409.90;2355.20;;;;;;5094380;28;20021;-77
2023/10/06 01:20:12;;;;;;;17.35;6.43;;;409.80;2355.20;;;;;;5114194;28;20023;-77
2023/10/06 01:22:44;;;;;;;15.63;7.25;;;409.80;2355.20;;;;;;5114055;28;20489;-79
2023/10/06 01:25:20;;;;;;;19.75;7.63;;;409.70;2355.20;;;;;;5096202;28;20019;-78
2023/10/06 01:27:46;;;;;;;;;;;409.60;2355.20;;;;;;5109949;28;20020;-79
2023/10/06 01:30:32;;;;;;;16.20;6.50;;;409.70;2355.20;;;;;;5044355;28;19904;-79
2023/10/06 01:32:58;;;;;;;18.45;7.05;;;409.60;2355.20;;;;;;5051177;28;20090;-79
2023/10/06 01:35:24;;;;;;;14.80;6.80;;;384.90;2329.60;;;;;;5047223;28;20115;-79
2023/10/06 01:38:00;;;;;;;16.67;7.10;;;384.90;2329.60;;;;;;5049053;28;20112;-79
2023/10/06 01:42:52;;;;;;;17.90;6.53;;;384.90;2329.60;;;;;;5051392;28;19940;-78
2023/10/06 01:45:21;;;;;;;17.98;6.82;;;384.80;2329.60;;;;;;5051849;28;20033;-78
2023/10/06 01:48:14;;;;;;;22.63;7.05;;;384.90;2329.60;;;;;;5046804;28;20102;-78
2023/10/06 01:50:41;;;;;;;14.20;6.25;;;384.80;2329.60;;;;;;5034632;28;20029;-77
2023/10/06 01:53:11;;;;;;;18.17;6.75;;;384.80;2329.60;;;;;;5034812;28;20025;-79
2023/10/06 01:55:38;;;;;;;18.58;6.93;;;384.90;2329.60;;;;;;5040145;28;20070;-77
2023/10/06 01:58:11;;;;;;;20.10;7.43;;;384.90;2329.60;;;;;;5041765;28;20056;-78
2023/10/06 02:00:37;;;;;;;20.13;7.13;;;384.90;2329.60;;;;;;5059276;28;20021;-79
2023/10/06 02:03:09;;;;;;;13.90;6.97;;;409.60;2355.20;;;;;;5082324;28;20036;-78
2023/10/06 02:05:38;;;;;;;20.40;6.85;;;409.60;2355.20;;;;;;5082976;28;20016;-77
2023/10/06 02:08:06;;;;;;;15.85;6.60;;;384.90;2329.60;;;;;;5113620;28;20525;-77
2023/10/06 02:10:32;;;;;;;22.77;6.97;;;409.60;2355.20;;;;;;5095671;28;20019;-79
2023/10/06 02:12:58;;;;;;;23.92;7.95;;;409.60;2355.20;;;;;;5095172;28;20565;-77
2023/10/06 02:15:24;;;;;;;20.13;7.20;;;409.60;2355.20;;;;;;5095505;28;20110;-79
2023/10/06 02:17:50;;;;;;;19.30;7.15;;;409.60;2355.20;;;;;;5113777;28;20111;-78
2023/10/06 02:22:57;;;;;;;30.73;7.85;;;384.90;2329.60;;;;;;5113585;28;20120;-78
2023/10/06 02:25:23;;;;;;;14.38;6.60;;;384.90;2329.60;;;;;;5101740;28;20028;-77
2023/10/06 02:27:50;;;;;;;20.17;7.03;;;384.90;2329.60;;;;;;5095536;28;20023;-79
2023/10/06 02:30:24;;;;;;;18.58;6.13;;;409.60;2355.20;;;;;;5113573;28;20098;-79
2023/10/06 02:32:51;;;;;;;16.17;5.97;;;384.90;2329.60;;;;;;5095153;28;20026;-78
2023/10/06 02:35:17;;;;;;;21.20;6.63;;;409.70;2355.20;;;;;;5113544;28;20027;-79
2023/10/06 02:37:46;;;;;;;22.88;7.07;;;409.70;2355.20;;;;;;5089925;28;20028;-79
2023/10/06 02:40:12;;;;;;;21.70;7.30;;;409.70;2355.20;;;;;;5087260;28;20119;-79
2023/10/06 02:42:51;;;;;;;19.52;7.80;;;409.70;2355.20;;;;;;5111943;28;20050;-79
2023/10/06 02:45:20;;;;;;;12.88;6.85;;;409.80;2355.20;;;;;;5115158;28;20030;-78
2023/10/06 02:47:51;;;;;;;18.00;6.85;;;409.90;2355.20;;;;;;5099232;28;20374;-79
2023/10/06 02:50:20;;;;;;;17.60;7.28;;;410.00;2355.20;;;;;;5099064;28;20020;-78
2023/10/06 02:52:47;;;;;;;14.30;6.32;;;409.90;2355.20;;;;;;5099110;28;20027;-78
2023/10/06 02:55:19;;;;;;;14.68;6.93;;;410.00;2355.20;;;;;;5117568;28;20457;-78
2023/10/06 02:57:51;;;;;;;20.63;6.82;;;409.90;2355.20;;;;;;5115915;28;20024;-79
2023/10/06 03:03:02;;;;;;;16.35;7.05;;;410.00;2355.20;;;;;;5108843;28;20385;-78
2023/10/06 03:05:39;;;;;;;16.27;7.53;;;410.00;2355.20;;;;;;5117006;28;20012;-77
2023/10/06 03:08:08;;;;;;;17.23;7.38;;;410.00;2355.20;;;;;;5101849;28;20035;-78
2023/10/06 03:10:44;;;;;;;13.10;7.28;;;409.90;2355.20;;;;;;5098423;28;20039;-78
2023/10/06 03:13:13;;;;;;;12.98;6.15;;;409.90;2355.20;;;;;;5116396;28;20036;-78
2023/10/06 03:15:48;;;;;;;17.20;7.68;;;409.80;2355.20;;;;;;5115395;28;20498;-78
2023/10/06 03:18:15;;;;;;;16.58;7.60;;;409.90;2355.20;;;;;;5101528;28;20022;-78
2023/10/06 03:20:46;;;;;;;19.60;7.47;;;409.80;2355.20;;;;;;5116710;28;20469;-78
2023/10/06 03:25:56;;;;;;;19.88;7.35;;;409.90;2355.20;;;;;;5116584;28;20026;-78
2023/10/06 03:28:49;;;;;;;18.48;7.68;;;409.80;2355.20;;;;;;5116389;28;20015;-78
2023/10/06 03:33:46;;;;;;;16.40;7.03;;;409.70;2355.20;;;;;;5109223;28;20030;-78
2023/10/06 03:36:15;;;;;;;21.67;6.75;;;409.60;2355.20;;;;;;5091554;28;20023;-78
2023/10/06 03:38:53;;;;;;;18.38;7.43;;;409.60;2355.20;;;;;;5109694;28;20599;-78
2023/10/06 03:41:20;;;;;;;18.17;7.97;;;409.70;2355.20;;;;;;5102903;28;20039;-78
2023/10/06 03:43:55;;;;;;;21.35;6.63;;;409.70;2355.20;;;;;;5114648;28;20062;-78
2023/10/06 03:46:24;;;;;;;20.15;7.15;;;409.80;2355.20;;;;;;5116178;28;20012;-78
2023/10/06 03:48:52;;;;;;;19.48;8.40;;;410.00;2355.20;;;;;;5116184;28;20016;-78
2023/10/06 03:51:21;;;;;;;21.52;7.68;;;410.00;2355.20;;;;;;5097578;28;20027;-78
2023/10/06 03:53:50;;;;;;;17.92;7.53;;;410.00;2355.20;;;;;;5097466;28;20019;-78
2023/10/06 03:56:16;;;;;;;29.23;8.18;;;410.00;2355.20;;;;;;5115547;28;20020;-78
2023/10/06 03:58:46;;;;;;;18.00;6.93;;;409.90;2355.20;;;;;;5115771;28;20016;-77
2023/10/06 04:01:26;;;;;;;20.20;8.23;;;409.90;2355.20;;;;;;5097367;28;20032;-78
2023/10/06 04:03:58;;;;;;;18.23;7.40;;;410.00;2355.20;;;;;;5111461;28;20481;-78
2023/10/06 04:06:25;;;;;;;18.60;8.95;;;410.00;2355.20;;;;;;5077301;28;20081;-77
2023/10/06 04:08:52;;;;;;;19.15;7.78;;;410.00;2355.20;;;;;;5080899;28;20027;-78
2023/10/06 04:11:19;;;;;;;24.63;7.65;;;410.00;2355.20;;;;;;5115253;28;20536;-78
2023/10/06 04:13:45;;;;;;;18.70;7.70;;;409.90;2355.20;;;;;;5115406;28;20016;-78
2023/10/06 04:16:14;;;;;;;19.05;7.82;;;410.00;2355.20;;;;;;5114420;28;20030;-78
2023/10/06 04:18:40;;;;;;;19.25;7.55;;;410.00;2355.20;;;;;;5097516;28;20020;-78
2023/10/06 04:21:11;;;;;;;19.67;7.75;;;409.80;2355.20;;;;;;5113591;28;20023;-78
2023/10/06 04:23:44;;;;;;;19.65;6.85;;;409.70;2355.20;;;;;;5092503;28;20032;-79
2023/10/06 04:26:11;;;;;;;19.02;6.43;;;409.70;2355.20;;;;;;5096970;28;20065;-78
2023/10/06 04:28:37;;;;;;;16.85;6.78;;;409.60;2355.20;;;;;;5096683;28;20546;-78
2023/10/06 04:31:06;;;;;;;15.82;6.95;;;409.60;2355.20;;;;;;5104647;28;20077;-78
2023/10/06 04:33:33;;;;;;;18.00;8.20;;;384.90;2329.60;;;;;;5114651;28;20026;-78
2023/10/06 04:36:08;;;;;;;13.38;6.53;;;384.70;2329.60;;;;;;5114612;28;20491;-78
2023/10/06 04:38:38;;;;;;;15.98;7.35;;;384.70;2329.60;;;;;;5114652;28;20035;-78
2023/10/06 04:41:08;;;;;;;18.08;7.05;;;384.60;2329.60;;;;;;5095130;28;20520;-78
2023/10/06 04:43:44;;;;;;;17.65;8.00;;;384.40;2329.60;;;;;;5114790;28;20384;-79
2023/10/06 04:46:11;;;;;;;11.43;6.55;;;384.40;2329.60;;;;;;5090108;28;20040;-76
2023/10/06 04:48:38;;;;;;;17.20;7.25;;;384.40;2329.60;;;;;;5096273;28;20488;-78
2023/10/06 04:51:05;;;;;;;13.60;6.20;;;384.60;2329.60;;;;;;5113187;28;20023;-80
2023/10/06 04:53:40;;;;;;;15.45;6.35;;;384.70;2329.60;;;;;;5096246;28;20023;-78
2023/10/06 04:56:08;;;;;;;11.85;6.88;;;384.70;2329.60;;;;;;5114330;28;20023;-78
2023/10/06 04:58:38;;;;;;;14.48;5.80;;;384.80;2329.60;;;;;;5113409;28;20026;-81
2023/10/06 05:01:07;;;;;;;12.98;6.25;;;384.90;2329.60;;;;;;5109603;28;20027;-80
2023/10/06 05:03:45;;;;;;;20.92;6.10;;;384.90;2329.60;;;;;;5095401;28;20130;-81
2023/10/06 05:06:16;;;;;;;15.60;5.50;;;409.60;2355.20;;;;;;5107966;28;20024;-78
2023/10/06 05:08:46;;;;;;;18.65;5.85;;;384.90;2329.60;;;;;;5114417;28;20036;-81
2023/10/06 05:11:17;;;;;;;17.45;7.15;;;384.90;2329.60;;;;;;5088583;28;20071;-78
2023/10/06 05:13:43;;;;;;;15.25;6.20;;;384.90;2329.60;;;;;;5073249;28;20028;-80
2023/10/06 05:16:11;;;;;;;12.98;6.45;;;384.90;2329.60;;;;;;5073693;28;20020;-82
2023/10/06 05:18:38;;;;;;;22.52;5.75;;;384.90;2329.60;;;;;;5067788;28;20533;-79
2023/10/06 05:21:06;;;;;;;12.13;5.93;;;384.90;2329.60;;;;;;5070392;28;20074;-79
2023/10/06 05:23:34;;;;;;;17.33;6.43;;;384.90;2329.60;;;;;;5073222;28;20024;-82
2023/10/06 05:26:04;;;;;;;19.67;6.65;;;384.70;2329.60;;;;;;5072253;28;20029;-82
2023/10/06 05:28:31;;;;;;;17.60;6.53;;;384.70;2329.60;;;;;;5073154;28;20020;-79
2023/10/06 05:30:57;;;;;;;15.43;6.97;;;384.70;2329.60;;;;;;5073462;28;20025;-81
2023/10/06 05:33:25;;;;;;;14.30;5.55;;;384.70;2329.60;;;;;;5073772;28;20082;-79
2023/10/06 05:35:51;;;;;;;15.85;5.88;;;384.80;2329.60;;;;;;5073398;28;20331;-80
2023/10/06 05:38:17;;;;;;;10.98;6.07;;;384.70;2329.60;;;;;;5071771;28;20466;-84
2023/10/06 05:40:44;;;;;;;17.98;6.28;;;384.70;2329.60;;;;;;5072073;28;20040;-79
2023/10/06 05:43:15;;;;;;;12.00;5.70;;;384.80;2329.60;;;;;;5068998;28;20486;-79
2023/10/06 05:45:42;;;;;;;11.10;6.35;;;384.90;2329.60;;;;;;5074668;28;20021;-79
2023/10/06 05:48:16;;;;;;;11.15;6.63;;;384.90;2329.60;;;;;;5070347;28;20366;-78
2023/10/06 05:50:43;;;;;;;19.17;6.55;;;384.90;2329.60;;;;;;5072083;28;20027;-79
2023/10/06 05:53:12;;;;;;;18.58;6.57;;;409.60;2355.20;;;;;;5071634;28;20377;-78
2023/10/06 05:55:41;;;;;;;16.23;6.15;;;409.70;2355.20;;;;;;5071943;28;20056;-78
2023/10/06 05:58:19;;;;;;;16.85;6.40;;;409.70;2355.20;;;;;;5071765;28;20028;-78
2023/10/06 06:00:52;;;;;;;22.23;10.70;;;409.80;2355.20;;;;;;5073205;28;20043;-78
2023/10/06 06:03:23;;;;;;;81.47;35.33;;;409.90;2355.20;;;;;;5068078;28;20364;-78
2023/10/06 06:05:53;;;;;;;49.20;26.15;;;409.90;2355.20;;;;;;5068902;28;20029;-79
2023/10/06 06:08:19;;;;;;;55.83;31.60;;;410.10;2355.20;;;;;;5072230;28;20428;-78
2023/10/06 06:10:45;;;;;;;57.42;29.33;;;410.20;2355.20;;;;;;5065664;28;20406;-79
2023/10/06 06:13:14;;;;;;;24.02;12.20;;;410.20;2355.20;;;;;;5112471;28;20036;-78
2023/10/06 06:15:40;;;;;;;14.48;6.93;;;410.20;2355.20;;;;;;5091705;28;20494;-78
2023/10/06 06:18:08;;;;;;;12.98;5.95;;;410.30;2355.20;;;;;;5096531;28;20024;-78
2023/10/06 06:20:38;;;;;;;35.13;8.95;;;410.40;2355.20;;;;;;5105112;28;20027;-79
2023/10/06 06:23:08;;;;;;;28.75;12.07;;;410.50;2355.20;;;;;;5099293;28;20044;-78
2023/10/06 06:25:37;;;;;;;15.35;7.70;;;435.30;2355.20;;;;;;5099061;28;20047;-79
2023/10/06 06:28:05;;;;;;;12.25;6.93;;;435.60;2355.20;;;;;;5115720;28;20469;-79
2023/10/06 06:30:33;;;;;;;13.63;7.25;;;435.60;2355.20;;;;;;5098649;28;20022;-79
2023/10/06 06:33:01;;;;;;;16.08;6.15;;;435.60;2355.20;;;;;;5116168;28;20047;-79
2023/10/06 06:35:28;;;;;;;12.32;6.07;;;435.70;2355.20;;;;;;5098713;28;20488;-78
2023/10/06 06:38:01;;;;;;;35.15;16.05;;;435.90;2355.20;;;;;;5096543;28;20032;-79
2023/10/06 06:40:30;;;;;;;21.02;10.27;;;460.80;2380.80;;;;;;5101356;28;20055;-79
2023/10/06 06:42:57;;;;;;;10.73;5.85;;;461.20;2380.80;;;;;;5091189;28;20043;-79
2023/10/06 06:45:26;;;;;;;12.68;6.88;;;461.30;2380.80;;;;;;5098092;28;20024;-78
2023/10/06 06:47:52;;;;;;;40.33;24.08;;;461.50;2380.80;;;;;;5115336;28;20027;-79
2023/10/06 06:50:19;;;;;;;22.05;12.85;;;461.40;2380.80;;;;;;5113804;28;20027;-79
2023/10/06 06:52:46;;;;;;;21.85;9.07;;;461.40;2380.80;;;;;;5098617;28;20024;-79
2023/10/06 06:55:13;;;;;;;32.20;15.85;;;461.50;2380.80;;;;;;5097944;28;20534;-79
2023/10/06 06:57:45;;;;;;;68.43;39.05;;;461.70;2380.80;;;;;;5115205;28;20031;-79
2023/10/06 07:00:17;;;;;;;70.82;38.28;;;461.60;2380.80;;;;;;5091205;28;20024;-79
2023/10/06 07:02:47;;;;;;;89.55;43.72;;;486.40;2380.80;;;;;;5096699;28;20437;-79
2023/10/06 07:05:14;;;;;;;91.90;51.72;;;486.70;2380.80;;;;;;5098262;28;20541;-79
2023/10/06 07:07:43;;;;;;;91.47;46.75;;;486.70;2380.80;;;;;;5102172;28;20034;-79
2023/10/06 07:10:12;;;;;;;68.60;36.67;;;486.80;2380.80;;;;;;5103765;28;20016;-79
2023/10/06 07:12:38;;;;;;;96.65;46.10;;;487.10;2380.80;;;;;;5095119;28;20047;-79
2023/10/06 07:15:04;;;;;;;58.30;30.60;;;487.30;2380.80;;;;;;5115855;28;20220;-79
2023/10/06 07:17:30;;;;;;;34.22;17.42;;;512.10;2380.80;;;;;;5104295;28;20031;-79
2023/10/06 07:20:00;;;;;;;26.10;15.55;;;512.30;2380.80;;;;;;5093976;28;20031;-79
2023/10/06 07:22:31;;;;;;;9.55;5.32;;;512.70;2380.80;;;;;;5114125;28;20047;-79
2023/10/06 07:24:57;;;;;;;35.13;16.48;;;512.90;2380.80;;;;;;5104482;28;20444;-79
2023/10/06 07:27:24;;;;;;;16.58;6.78;;;537.60;2406.40;;;;;;5097180;28;20054;-79
2023/10/06 07:29:53;;;;;;;10.60;4.75;;;537.80;2406.40;;;;;;5094523;28;20027;-79
2023/10/06 07:32:18;;;;;;;24.88;10.55;;;537.80;2406.40;;;;;;5102909;28;20061;-79
2023/10/06 07:34:44;;;;;;;9.30;5.38;;;538.00;2406.40;;;;;;5115247;28;20027;-78
2023/10/06 07:37:11;;;;;;;12.80;5.25;;;537.60;2406.40;;;;;;5105313;28;20035;-78
2023/10/06 07:39:37;;;;;;;9.95;4.05;;;537.80;2406.40;;;;;;5090368;28;20047;-79
2023/10/06 07:42:06;;;;;;;12.23;4.68;;;537.70;2406.40;;;;;;5093742;28;20150;-78
2023/10/06 07:44:33;;;;;;;14.00;4.25;;;537.90;2406.40;;;;;;5111787;28;20015;-78
2023/10/06 07:47:00;;;;;;;13.07;5.55;;;538.00;2406.40;;;;;;5090594;28;20537;-79
2023/10/06 07:49:27;;;;;;;10.50;4.95;;;538.10;2406.40;;;;;;5089682;28;20032;-79
2023/10/06 07:51:55;;;;;;;18.05;7.88;;;538.00;2406.40;;;;;;5097195;28;20020;-81
2023/10/06 07:54:23;;;;;;;10.48;6.05;;;538.10;2406.40;;;;;;5095358;28;20026;-76
2023/10/06 07:56:49;;;;;;;14.23;4.88;;;538.20;2406.40;;;;;;5110040;28;20020;-78
2023/10/06 07:59:15;;;;;;;11.05;4.57;;;538.20;2406.40;;;;;;5114004;28;20545;-78
2023/10/06 08:01:41;;;;;;;12.35;4.70;;;538.20;2406.40;;;;;;5114856;28;20110;-78
2023/10/06 08:04:07;;;;;;;11.63;5.05;;;538.10;2406.40;;;;;;5115266;28;20028;-76
2023/10/06 08:06:34;;;;;;;10.50;4.75;;;538.10;2406.40;;;;;;5115007;28;20092;-77
2023/10/06 08:09:00;;;;;;;11.48;4.00;;;538.20;2406.40;;;;;;5115007;28;20089;-76
2023/10/06 08:11:25;;;;;;;9.15;4.20;;;538.40;2406.40;;;;;;5089730;28;20501;-79
2023/10/06 08:13:52;;;;;;;12.73;4.60;;;538.50;2406.40;;;;;;5111189;28;20370;-79
2023/10/06 08:16:18;;;;;;;7.75;4.57;;;563.30;2406.40;;;;;;5114927;28;20016;-80
2023/10/06 08:18:45;;;;;;;5.97;3.90;;;563.30;2406.40;;;;;;5096468;28;20034;-79
2023/10/06 08:21:11;;;;;;;8.60;4.53;;;563.60;2380.80;;;;;;5095413;28;20027;-79
2023/10/06 08:23:37;;;;;;;10.65;5.15;;;563.70;2355.20;;;;;;5104958;28;20038;-80
2023/10/06 08:26:08;;;;;;;11.52;4.45;;;563.70;2329.60;;;;;;5091844;28;20054;-77
2023/10/06 08:28:34;;;;;;;11.07;4.47;;;563.90;2355.20;;;;;;5084996;28;20435;-78
2023/10/06 08:31:02;;;;;;;8.75;4.68;;;563.80;2329.60;;;;;;5112241;28;20601;-78
2023/10/06 08:33:29;;;;;;;10.45;4.78;;;563.90;2329.60;;;;;;5100319;28;20065;-77
2023/10/06 08:36:00;;;;;;;10.18;4.05;;;564.10;2227.20;;;;;;5114237;28;20098;-78
2023/10/06 08:38:26;;;;;;;14.93;4.43;;;588.90;2150.40;;;;;;5095466;28;20020;-79
2023/10/06 08:40:58;;;;;;;10.98;4.72;;;589.20;2150.40;;;;;;5103511;28;20046;-77
2023/10/06 08:43:29;;;;;;;8.65;4.57;;;589.20;2099.20;;;;;;5093754;28;20035;-77
2023/10/06 08:45:59;;;;;;;11.70;4.90;;;589.50;2099.20;;;;;;5095748;28;20502;-77
2023/10/06 08:48:30;;;;;;;13.82;4.57;;;589.30;2073.60;;;;;;5114361;28;20024;-78
2023/10/06 08:50:58;;;;;;;18.33;5.50;;;589.40;2073.60;;;;;;5095120;28;20055;-76
2023/10/06 08:53:26;;;;;;;9.40;5.10;;;589.70;2073.60;;;;;;5113380;28;20023;-76
2023/10/06 08:55:52;;;;;;;12.18;4.38;;;589.70;2048.00;;;;;;5089940;28;20039;-79
2023/10/06 08:58:18;;;;;;;10.02;4.57;;;614.50;1945.60;;;;;;5093797;28;20436;-80
2023/10/06 09:00:44;;;;;;;8.73;4.25;;;614.60;1920.00;;;;;;5095924;28;20034;-78
2023/10/06 09:03:17;;;;;;;9.77;4.28;;;;;;;;;;5095983;28;20090;-78
2023/10/06 09:05:44;;;;;;;12.85;4.50;;;615.20;1920.00;;;;;;5112665;28;20077;-78
2023/10/06 09:08:11;;;;;;;14.02;4.15;;;640.00;1843.20;;;;;;5103269;28;20535;-78
2023/10/06 09:10:40;;;;;;;10.35;4.18;;;615.30;1843.20;;;;;;5095312;28;20385;-79
2023/10/06 09:13:11;;;;;;;9.93;4.22;;;615.30;1894.40;;;;;;5095359;28;20070;-79
2023/10/06 09:15:40;;;;;;;9.13;4.63;;;615.30;1843.20;;;;;;5094408;28;20034;-79
2023/10/06 09:18:18;;;;;;;9.57;3.70;;;615.00;1843.20;;;;;;5092585;28;20028;-78
2023/10/06 09:20:45;;;;;;;7.78;4.00;;;614.50;1868.80;;;;;;5113302;28;20028;-78
2023/10/06 09:23:11;;;;;;;9.68;4.43;;;589.50;1894.40;;;;;;5111252;28;20536;-78
2023/10/06 09:25:47;;;;;;;10.40;4.25;;;589.30;1920.00;;;;;;5099567;28;20468;-80
2023/10/06 09:28:17;;;;;;;11.35;5.05;;;589.20;1945.60;;;;;;5096001;28;20096;-78
2023/10/06 09:31:05;;;;;;;10.65;4.93;;;589.20;1945.60;;;;;;5100383;28;20057;-79
2023/10/06 09:33:37;;;;;;;8.68;3.70;;;589.10;1971.20;;;;;;5111030;28;20022;-80
2023/10/06 09:36:17;;;;;;;9.80;3.78;;;589.20;1920.00;;;;;;5098004;28;20081;-79
2023/10/06 09:38:44;;;;;;;11.98;4.50;;;589.70;1868.80;;;;;;5095140;28;20059;-79
2023/10/06 09:41:11;;;;;;;13.30;4.20;;;614.40;1868.80;;;;;;5095165;28;20122;-77
2023/10/06 09:43:40;;;;;;;8.45;3.97;;;614.40;1868.80;;;;;;5110616;28;20137;-78
2023/10/06 09:46:08;;;;;;;17.13;4.15;;;614.60;1843.20;;;;;;5112002;28;20024;-79
2023/10/06 09:48:38;;;;;;;13.02;4.43;;;614.90;1792.00;;;;;;5109283;28;20047;-78
2023/10/06 09:51:08;;;;;;;7.90;4.25;;;;;;;;;;5110712;28;20032;-78
2023/10/06 09:53:38;;;;;;;8.77;3.97;;;640.10;1689.60;;;;;;5107181;28;20062;-78
2023/10/06 09:56:12;;;;;;;8.18;3.65;;;640.20;1689.60;;;;;;5094547;28;20485;-78
2023/10/06 09:58:40;;;;;;;7.03;3.42;;;640.20;1689.60;;;;;;5111205;28;20073;-79
2023/10/06 10:01:08;;;;;;;7.30;3.83;;;640.70;1638.40;;;;;;5109364;28;20020;-76
2023/10/06 10:03:37;;;;;;;8.35;4.25;;;665.60;1638.40;;;;;;5112834;28;20155;-77
2023/10/06 10:06:04;;;;;;;12.60;4.47;;;665.90;1612.80;;;;;;5112756;28;20500;-76
2023/10/06 10:08:32;;;;;;;16.77;4.90;;;666.00;1612.80;;;;;;5112505;28;20118;-76
2023/10/06 10:11:07;;;;;;;11.30;4.28;;;666.00;1587.20;;;;;;5112068;28;20408;-76
2023/10/06 10:13:46;;;;;;;5.88;3.55;;;640.90;1561.60;;;;;;5097071;28;20047;-76
2023/10/06 10:16:25;;;;;;;8.60;4.07;;;640.60;1612.80;;;;;;5092664;28;20031;-77
2023/10/06 10:19:03;;;;;;;12.55;4.28;;;640.60;1612.80;;;;;;5101177;28;20114;-77
2023/10/06 10:21:34;;;;;;;15.32;4.22;;;666.00;1561.60;;;;;;5112552;28;20028;-76
2023/10/06 10:24:05;;;;;;;9.80;3.50;;;666.40;1536.00;;;;;;5113283;28;20028;-77
2023/10/06 10:26:34;;;;;;;9.13;4.43;;;666.10;1587.20;;;;;;5109377;28;20092;-77
2023/10/06 10:29:17;;;;;;;6.22;4.00;;;666.50;1536.00;;;;;;5094678;28;20059;-76
2023/10/06 10:31:46;;;;;;;13.00;4.60;;;691.30;1510.40;;;;;;5112354;28;20080;-76
2023/10/06 10:34:20;;;;;;;9.27;4.20;;;691.70;1484.80;;;;;;5107229;28;20100;-77
2023/10/06 10:37:07;;;;;;;11.07;4.30;;;666.50;1484.80;;;;;;5094299;28;20031;-76
2023/10/06 10:39:52;;;;;;;8.90;3.70;;;691.20;1484.80;;;;;;5085850;28;20055;-76
2023/10/06 10:42:22;;;;;;;6.68;3.70;;;691.30;1459.20;;;;;;5112041;28;20039;-76
2023/10/06 10:44:49;;;;;;;12.10;4.18;;;691.50;1433.60;;;;;;5112608;28;20099;-76
2023/10/06 10:47:23;;;;;;;9.57;3.78;;;691.80;1408.00;;;;;;5112445;28;20115;-77
2023/10/06 10:49:48;;;;;;;9.40;4.60;;;691.90;1408.00;;;;;;5109347;28;20027;-76
2023/10/06 10:52:14;;;;;;;10.73;4.53;;;692.10;1382.40;;;;;;5103977;28;20020;-77
2023/10/06 10:54:42;;;;;;;10.25;4.63;;;716.80;1382.40;;;;;;5108308;28;20489;-77
2023/10/06 10:57:13;;;;;;;6.97;4.07;;;716.90;1382.40;;;;;;5109473;28;20533;-77
2023/10/06 11:00:12;;;;;;;8.30;4.28;;;717.10;1356.80;;;;;;5112136;28;20028;-77
2023/10/06 11:02:47;;;;;;;7.20;3.80;;;717.00;1356.80;;;;;;5112264;28;20035;-77
2023/10/06 11:05:13;;;;;;;9.50;3.83;;;716.90;1331.20;;;;;;5111375;28;20024;-76
2023/10/06 11:07:39;;;;;;;8.90;4.30;;;716.90;1331.20;;;;;;5093188;28;20023;-77
2023/10/06 11:10:05;;;;;;;8.05;3.70;;;716.90;1356.80;;;;;;5113859;28;20530;-77
2023/10/06 11:12:31;;;;;;;10.15;4.68;;;717.20;1331.20;;;;;;5116296;28;20039;-77
2023/10/06 11:15:13;;;;;;;13.15;5.40;;;717.20;1305.60;;;;;;5089353;28;20061;-77
2023/10/06 11:17:43;;;;;;;11.77;4.80;;;717.40;1331.20;;;;;;5115952;28;20492;-77
2023/10/06 11:20:13;;;;;;;11.95;4.82;;;717.40;1356.80;;;;;;5115570;28;20102;-76
2023/10/06 11:22:53;;;;;;;13.23;4.18;;;717.60;1305.60;;;;;;5115960;28;20043;-77
2023/10/06 11:25:26;;;;;;;9.35;3.75;;;717.50;1305.60;;;;;;5086620;28;20060;-76
2023/10/06 11:28:08;;;;;;;7.30;4.35;;;717.60;1280.00;;;;;;5113693;28;20107;-77
2023/10/06 11:30:38;;;;;;;8.20;3.67;;;717.60;1280.00;;;;;;5113149;28;20110;-77
2023/10/06 11:33:06;;;;;;;10.45;4.25;;;717.50;1280.00;;;;;;5100863;28;20031;-76
2023/10/06 11:35:33;;;;;;;9.35;5.22;;;717.50;1280.00;;;;;;5113851;28;20114;-76
2023/10/06 11:37:59;;;;;;;12.45;4.80;;;717.60;1280.00;;;;;;5113609;28;20023;-76
2023/10/06 11:40:26;;;;;;;11.93;4.00;;;717.50;1305.60;;;;;;5112768;28;20392;-77
2023/10/06 11:42:53;;;;;;;7.72;4.10;;;717.50;1305.60;;;;;;5115347;28;20067;-79
2023/10/06 11:45:30;;;;;;;10.18;4.65;;;717.50;1305.60;;;;;;5107225;28;20100;-77
2023/10/06 11:47:57;;;;;;;9.85;4.55;;;717.50;1280.00;;;;;;5106125;28;20023;-78
2023/10/06 11:50:32;;;;;;;12.35;4.25;;;717.50;1280.00;;;;;;5115405;28;20076;-77
2023/10/06 11:52:59;;;;;;;8.77;4.10;;;717.40;1280.00;;;;;;5096698;28;20139;-76
2023/10/06 11:55:34;;;;;;;14.27;4.13;;;717.30;1305.60;;;;;;5114927;28;20028;-77
2023/10/06 11:58:01;;;;;;;7.97;4.28;;;717.40;1280.00;;;;;;5106999;28;20137;-77
2023/10/06 12:00:41;;;;;;;13.15;4.72;;;717.50;1280.00;;;;;;5094565;28;20038;-77
2023/10/06 12:03:11;;;;;;;10.85;4.38;;;717.50;1254.40;;;;;;5115056;28;20137;-77
2023/10/06 12:05:52;;;;;;;10.82;4.30;;;717.40;1280.00;;;;;;5096649;28;20370;-77
2023/10/06 12:08:18;;;;;;;7.63;4.15;;;717.10;1280.00;;;;;;5111323;28;20508;-77
2023/10/06 12:10:51;;;;;;;12.30;4.75;;;716.90;1280.00;;;;;;5111232;28;20024;-77
2023/10/06 12:13:18;;;;;;;35.80;22.92;;;717.10;1254.40;;;;;;5114857;28;20534;-77
2023/10/06 12:15:44;;;;;;;21.38;11.55;;;717.20;1254.40;;;;;;5114866;28;20031;-80
2023/10/06 12:18:12;;;;;;;12.90;4.80;;;717.40;1254.40;;;;;;5097813;28;20047;-79
2023/10/06 12:20:37;;;;;;;13.60;5.03;;;717.10;1254.40;;;;;;5095831;28;20097;-80
2023/10/06 12:23:03;;;;;;;8.45;4.05;;;716.90;1280.00;;;;;;5084441;28;20484;-79
2023/10/06 12:25:29;;;;;;;9.85;4.65;;;716.90;1280.00;;;;;;5114670;28;20380;-78
2023/10/06 12:27:56;;;;;;;10.10;4.50;;;716.90;1280.00;;;;;;5089171;28;20035;-79
2023/10/06 12:30:24;;;;;;;15.80;4.20;;;717.00;1280.00;;;;;;5097057;28;20019;-80
2023/10/06 12:32:50;;;;;;;10.20;4.30;;;717.10;1280.00;;;;;;5111503;28;20032;-79
2023/10/06 12:35:19;;;;;;;13.15;4.55;;;717.00;1280.00;;;;;;5095962;28;20495;-79
2023/10/06 12:37:46;;;;;;;9.63;4.63;;;716.90;1305.60;;;;;;5113266;28;20062;-78
2023/10/06 12:40:14;;;;;;;10.85;4.32;;;717.00;1280.00;;;;;;5113833;28;20066;-80